Terminal Aerodrome Forecast
Issued by NWS Atlanta, GA

Home | Current Version | Previous Version | Text Only | Print | Product List | Glossary On
Versions: 1 2 3 4 5 6 7 8 9 10 11 12 13 14 15 16 17 18 19 20 21 22 23 24 25 26 27 28 29 30 31 32 33 34 35 36
000
FTUS42 KFFC 271356 AAA
TAFATL
TAF AMD
KATL 271356Z 2714/2818 24008KT P6SM FEW060 BKN200
     FM271500 24009G16KT P6SM SCT050 BKN200
     FM272200 25010G18KT P6SM BKN050
     FM280100 25006KT P6SM VCSH BKN040
     FM280300 24005KT P6SM SCT040 BKN150
     FM281000 25006KT P6SM BKN012
     FM281400 25010KT P6SM SCT025
     FM281500 25011KT P6SM SCT035=

USA.gov is the U.S. government's official web portal to all federal, state and local government web resources and services.